Time;durP1;ratioP1;P1;durP2;ratioP2;P2;SDS_P1;SDS_P2;PMS_P1;PMS_P2;Temp;Humidity;BMP_temperature;BMP_pressure;BME280_temperature;BME280_humidity;BME280_pressure;Samples;Min_cycle;Max_cycle;Signal;HPM_P1;HPM_P2
2021/05/19 05:25:42;;;;;;;12.30;1.88;;;21.00;59.90;;;;;;5213657;27;20379;-48
2021/05/19 05:28:15;;;;;;;11.83;1.77;;;21.00;60.20;;;;;;5154005;28;21019;-48
2021/05/19 05:30:48;;;;;;;9.85;1.35;;;21.10;60.20;;;;;;5137581;28;20323;-51
2021/05/19 05:33:21;;;;;;;13.00;2.53;;;21.10;59.90;;;;;;5145981;28;20835;-45
2021/05/19 05:35:54;;;;;;;15.73;3.03;;;21.20;59.70;;;;;;5140445;28;20135;-49
2021/05/19 05:38:27;;;;;;;14.47;1.63;;;21.20;59.20;;;;;;5125204;28;20049;-47
2021/05/19 05:41:00;;;;;;;15.63;1.75;;;21.30;58.70;;;;;;5136267;28;21342;-49
2021/05/19 05:43:34;;;;;;;9.35;1.75;;;21.30;58.60;;;;;;5134085;28;20061;-50
2021/05/19 05:46:07;;;;;;;12.67;1.40;;;21.40;58.30;;;;;;5129459;28;20049;-50
2021/05/19 05:48:40;;;;;;;7.93;1.40;;;21.50;58.10;;;;;;5136019;28;20465;-48
2021/05/19 05:51:16;;;;;;;8.57;1.52;;;21.50;57.70;;;;;;5146499;28;20053;-47
2021/05/19 05:53:48;;;;;;;5.38;1.38;;;21.60;57.50;;;;;;5122957;28;20041;-47
2021/05/19 05:56:21;;;;;;;11.43;1.33;;;21.60;57.30;;;;;;5126919;28;20056;-50
2021/05/19 05:58:54;;;;;;;9.02;1.98;;;21.70;57.20;;;;;;5136271;28;20262;-48
2021/05/19 13:19:57;;;;;;;5.57;1.55;;;21.20;57.20;;;;;;5185356;28;20388;-45
2021/05/19 13:24:59;;;;;;;17.42;1.90;;;21.40;58.50;;;;;;5188925;28;20408;-62
2021/05/19 13:27:33;;;;;;;12.27;1.70;;;22.00;57.30;;;;;;5127147;28;20671;-56
2021/05/19 13:30:08;;;;;;;15.07;1.65;;;21.80;57.20;;;;;;5131143;28;20683;-56
2021/05/19 13:33:25;;;;;;;13.32;1.60;;;21.90;57.00;;;;;;5146260;28;21569;-53
2021/05/19 13:38:31;;;;;;;13.07;1.90;;;22.00;56.60;;;;;;5157383;28;20133;-54
2021/05/19 13:41:05;;;;;;;;;;;22.20;56.60;;;;;;5143620;28;22117;-56
2021/05/19 13:43:38;;;;;;;11.20;1.52;;;22.20;56.30;;;;;;5152240;28;20305;-57
2021/05/19 13:46:11;;;;;;;17.27;1.77;;;22.30;56.20;;;;;;5143837;28;20049;-57
2021/05/19 13:48:45;;;;;;;6.47;1.40;;;22.40;55.90;;;;;;5149151;28;20057;-56
2021/05/19 13:51:17;;;;;;;7.25;2.22;;;22.50;55.90;;;;;;5148690;28;20046;-57
2021/05/19 13:53:50;;;;;;;8.32;1.35;;;22.60;55.60;;;;;;5159544;28;21805;-56
2021/05/19 13:56:23;;;;;;;5.70;1.27;;;22.60;55.60;;;;;;5163426;28;20053;-57
2021/05/19 13:58:55;;;;;;;6.70;1.40;;;22.80;55.30;;;;;;5151888;28;20049;-58
2021/05/19 14:01:28;;;;;;;5.88;1.55;;;22.80;55.20;;;;;;5153134;28;20478;-56
2021/05/19 14:04:02;;;;;;;4.73;1.20;;;22.90;55.10;;;;;;5151640;28;20477;-55
2021/05/19 14:06:35;;;;;;;3.42;1.55;;;23.00;54.90;;;;;;5155897;28;20906;-57
2021/05/19 14:09:08;;;;;;;6.15;1.70;;;23.10;54.80;;;;;;5160756;28;20060;-56
2021/05/19 14:11:56;;;;;;;5.15;1.05;;;23.10;54.60;;;;;;5153802;28;20052;-57
2021/05/19 14:26:51;;;;;;;7.82;1.30;;;23.30;54.30;;;;;;5160126;28;20049;-56
2021/05/19 14:29:22;;;;;;;5.65;1.45;;;23.40;54.30;;;;;;5163440;28;20155;-59
2021/05/19 14:31:56;;;;;;;8.13;1.25;;;23.40;54.20;;;;;;5159918;28;20049;-56
2021/05/19 14:34:29;;;;;;;2.35;1.05;;;23.40;54.30;;;;;;5159467;28;20056;-59
2021/05/19 15:01:57;;;;;;;20.23;3.00;;;23.10;55.00;;;;;;5153282;28;22498;-54
2021/05/19 15:04:29;;;;;;;21.98;2.85;;;23.00;55.10;;;;;;5156493;28;20049;-53
2021/05/19 15:07:02;;;;;;;15.50;1.67;;;23.40;54.80;;;;;;5152518;28;20104;-52
2021/05/19 15:09:36;;;;;;;7.93;1.63;;;23.50;54.20;;;;;;5154714;28;20056;-54
2021/05/19 15:12:11;;;;;;;11.85;1.52;;;23.60;54.10;;;;;;5164718;28;20620;-50
2021/05/19 15:14:43;;;;;;;14.88;1.63;;;23.60;54.00;;;;;;5158455;28;20532;-54
2021/05/19 15:17:16;;;;;;;7.78;2.08;;;23.50;53.90;;;;;;5152179;28;20060;-53
2021/05/19 15:19:49;;;;;;;12.90;2.10;;;23.50;53.90;;;;;;5158974;28;20046;-53
2021/05/19 15:22:21;;;;;;;6.65;1.30;;;23.50;53.90;;;;;;5154067;28;20049;-53
2021/05/19 15:24:55;;;;;;;;;;;23.50;53.80;;;;;;5157908;28;20042;-54
2021/05/19 15:27:27;;;;;;;8.90;1.55;;;23.50;53.70;;;;;;5156048;28;19929;-54
2021/05/19 15:30:00;;;;;;;5.55;1.05;;;23.50;53.70;;;;;;5150744;28;20048;-54
2021/05/19 15:32:33;;;;;;;5.68;1.00;;;23.50;53.70;;;;;;5155058;28;20765;-50
2021/05/19 15:35:06;;;;;;;4.55;1.35;;;23.50;53.60;;;;;;5150475;28;20061;-54
2021/05/19 15:37:39;;;;;;;3.65;1.30;;;23.50;53.60;;;;;;5147161;28;20054;-52
2021/05/19 15:40:12;;;;;;;14.63;1.60;;;23.40;53.60;;;;;;5134120;28;20049;-55
2021/05/19 15:43:02;;;;;;;3.70;1.08;;;23.40;53.90;;;;;;5153713;28;20053;-51
2021/05/19 15:45:34;;;;;;;9.98;1.38;;;23.40;53.40;;;;;;5149092;28;20891;-53
2021/05/19 15:48:08;;;;;;;3.08;1.00;;;23.50;53.50;;;;;;5151862;28;20054;-53
2021/05/19 15:50:41;;;;;;;;;;;23.40;53.40;;;;;;5153606;28;22197;-55
2021/05/19 15:53:13;;;;;;;2.88;1.08;;;23.40;53.40;;;;;;5151039;28;19926;-51
2021/05/19 15:55:47;;;;;;;2.65;1.10;;;23.40;53.30;;;;;;5150017;28;20050;-52
2021/05/19 15:58:20;;;;;;;4.18;1.20;;;23.40;53.30;;;;;;5153051;28;20413;-53
2021/05/19 16:00:53;;;;;;;6.30;1.77;;;;;;;;;;5155302;28;21538;-58
2021/05/19 16:03:28;;;;;;;14.98;1.73;;;23.40;53.80;;;;;;5151874;28;20041;-60
2021/05/19 16:06:00;;;;;;;12.63;1.60;;;23.30;53.80;;;;;;5164063;28;20060;-57
2021/05/19 16:08:33;;;;;;;16.00;1.83;;;23.40;54.10;;;;;;5147417;28;20041;-59
2021/05/19 16:11:06;;;;;;;9.75;2.05;;;23.30;54.20;;;;;;5162284;28;20046;-59
2021/05/19 16:13:39;;;;;;;19.70;1.88;;;23.30;54.70;;;;;;5158295;28;20046;-57
2021/05/19 16:16:12;;;;;;;25.67;2.93;;;23.30;54.20;;;;;;5159604;28;20061;-56
2021/05/19 16:18:45;;;;;;;25.47;2.83;;;23.40;54.40;;;;;;5163067;28;20971;-53
2021/05/19 16:21:18;;;;;;;16.80;3.90;;;23.40;54.90;;;;;;5170039;28;20712;-55
2021/05/19 16:23:51;;;;;;;30.58;3.38;;;23.40;54.70;;;;;;5154468;28;20049;-60
2021/05/19 16:26:25;;;;;;;19.42;3.05;;;23.40;54.90;;;;;;5146023;28;20710;-58
2021/05/19 16:44:44;;;;;;;28.75;2.35;;;23.40;54.40;;;;;;5240287;27;20409;-58
2021/05/19 16:47:17;;;;;;;26.17;2.35;;;23.20;55.00;;;;;;5179967;28;20045;-59
2021/05/19 16:49:50;;;;;;;16.50;2.47;;;23.20;55.30;;;;;;5168976;28;20704;-58
2021/05/19 16:52:22;;;;;;;28.85;2.13;;;23.20;55.30;;;;;;5179112;28;20057;-56
2021/05/19 16:54:55;;;;;;;13.73;1.92;;;23.10;55.30;;;;;;5178912;28;20044;-58
2021/05/19 16:57:27;;;;;;;13.90;2.65;;;23.20;55.30;;;;;;5184087;28;20512;-58
2021/05/19 17:00:00;;;;;;;18.77;2.15;;;23.20;55.50;;;;;;5174164;28;20559;-58
2021/05/19 17:05:23;;;;;;;18.58;2.17;;;23.20;55.20;;;;;;5170619;28;20049;-59
2021/05/19 17:07:56;;;;;;;11.98;2.40;;;23.10;55.00;;;;;;5173354;28;20055;-59
2021/05/19 17:10:28;;;;;;;13.37;2.27;;;23.20;55.20;;;;;;4478400;28;10000766;-61
2021/05/19 17:13:02;;;;;;;17.35;2.00;;;23.10;55.20;;;;;;5179087;28;20049;-58
2021/05/19 17:15:36;;;;;;;10.85;1.90;;;23.20;55.10;;;;;;5183463;28;25140;-58
2021/05/19 17:18:09;;;;;;;7.47;1.70;;;23.10;55.00;;;;;;5185092;28;20080;-56
2021/05/19 17:20:42;;;;;;;7.18;1.45;;;23.10;54.90;;;;;;5187519;28;20048;-59
2021/05/19 17:23:14;;;;;;;11.25;1.73;;;23.20;54.80;;;;;;5182169;28;26714;-60
2021/05/19 17:25:47;;;;;;;10.85;1.83;;;23.20;54.60;;;;;;5184565;28;20590;-61
2021/05/19 17:28:19;;;;;;;16.10;2.05;;;23.10;54.60;;;;;;5176507;28;20053;-61
2021/05/19 17:30:51;;;;;;;8.18;1.67;;;23.10;55.40;;;;;;5173634;28;20223;-59
2021/05/19 17:33:24;;;;;;;6.90;1.58;;;23.20;55.20;;;;;;5177782;28;20053;-58
2021/05/19 17:35:57;;;;;;;18.23;2.33;;;23.20;54.50;;;;;;5180907;28;20053;-60
2021/05/19 17:38:29;;;;;;;10.45;1.60;;;23.10;54.30;;;;;;5180026;28;20045;-60
2021/05/19 17:41:02;;;;;;;4.57;1.40;;;23.20;54.30;;;;;;5173766;28;20055;-61
2021/05/19 17:43:34;;;;;;;6.50;1.70;;;23.20;54.30;;;;;;5181865;28;20416;-61
2021/05/19 17:46:07;;;;;;;10.95;1.70;;;23.10;54.20;;;;;;5177942;28;20741;-60
2021/05/19 17:48:40;;;;;;;3.47;1.43;;;23.10;54.20;;;;;;5180438;28;20497;-61
2021/05/19 17:51:12;;;;;;;11.20;1.67;;;23.10;54.20;;;;;;5188683;28;20064;-60
2021/05/19 17:53:45;;;;;;;7.55;1.40;;;23.10;54.10;;;;;;5185291;28;20052;-60
2021/05/19 17:56:18;;;;;;;4.43;1.92;;;23.10;54.20;;;;;;5166882;28;20049;-58
2021/05/19 17:58:51;;;;;;;8.40;1.38;;;23.10;54.10;;;;;;5164606;28;20047;-59
2021/05/19 18:01:23;;;;;;;7.97;1.33;;;23.10;54.00;;;;;;5165455;28;20055;-61
2021/05/19 18:03:56;;;;;;;16.33;1.53;;;23.10;54.00;;;;;;5154020;28;21231;-60
2021/05/19 18:06:31;;;;;;;4.32;1.02;;;23.10;54.40;;;;;;5160632;28;20052;-60
2021/05/19 18:09:05;;;;;;;7.80;1.30;;;23.10;54.20;;;;;;5162304;28;20049;-60
2021/05/19 18:11:41;;;;;;;8.88;1.33;;;23.20;54.40;;;;;;5158836;28;20044;-61
2021/05/19 18:14:21;;;;;;;18.30;1.38;;;23.10;54.50;;;;;;5159664;28;20045;-60
